Time;durP1;ratioP1;P1;durP2;ratioP2;P2;SDS_P1;SDS_P2;PMS_P1;PMS_P2;Temp;Humidity;BMP_temperature;BMP_pressure;BME280_temperature;BME280_humidity;BME280_pressure;Samples;Min_cycle;Max_cycle;Signal;HPM_P1;HPM_P2
2022/08/10 00:02:32;;;;;;;;;;;;;;;16.99;57.44;100888.27;1454572;90;20360;-82
2022/08/10 00:04:57;;;;;;;;;;;;;;;16.98;57.74;100884.45;1459120;89;20769;-82
2022/08/10 00:07:24;;;;;;;;;;;;;;;16.96;58.48;100884.61;1450690;90;20316;-81
2022/08/10 00:09:50;;;;;;;;;;;;;;;16.94;58.16;100884.46;1441878;90;20464;-82
2022/08/10 00:12:18;;;;;;;;;;;;;;;16.93;57.92;100888.98;1448998;90;20793;-82
2022/08/10 00:14:44;;;;;;;;;;;;;;;16.93;58.26;100887.64;1452633;90;20378;-82
2022/08/10 00:17:09;;;;;;;;;;;;;;;16.90;58.73;100886.66;1455533;89;20346;-82
2022/08/10 00:19:35;;;;;;;;;;;;;;;16.91;58.61;100887.81;1448983;89;20814;-82
2022/08/10 00:22:01;;;;;;;;;;;;;;;16.93;58.22;100888.98;1457795;90;20279;-82
2022/08/10 00:24:27;;;;;;;;;;;;;;;16.92;58.61;100892.67;1455358;90;20286;-82
2022/08/10 00:26:53;;;;;;;;;;;;;;;16.91;58.62;100894.49;1457346;90;20257;-82
2022/08/10 00:29:19;;;;;;;;;;;;;;;16.89;58.92;100893.03;1453430;89;20250;-82
2022/08/10 00:31:45;;;;;;;;;;;;;;;16.89;58.77;100886.34;1448939;90;20331;-82
2022/08/10 00:34:11;;;;;;;;;;;;;;;16.90;58.76;100881.31;1447805;90;20733;-82
2022/08/10 00:36:37;;;;;;;;;;;;;;;16.89;58.94;100881.00;1454698;89;20233;-81
2022/08/10 00:39:03;;;;;;;;;;;;;;;16.85;58.92;100878.34;1450665;90;20300;-82
2022/08/10 00:41:28;;;;;;;;;;;;;;;16.84;58.83;100877.52;1461259;90;20234;-82
2022/08/10 00:43:54;;;;;;;;;;;;;;;16.81;59.44;100879.72;1457002;89;20295;-82
2022/08/10 00:46:20;;;;;;;;;;;;;;;16.80;59.45;100875.36;1447422;90;20226;-82
2022/08/10 00:48:46;;;;;;;;;;;;;;;16.78;59.53;100878.73;1452639;90;20323;-82
2022/08/10 00:51:12;;;;;;;;;;;;;;;16.74;59.73;100878.72;1452740;89;20264;-82
2022/08/10 00:53:38;;;;;;;;;;;;;;;16.73;59.65;100878.39;1441265;90;20747;-82
2022/08/10 00:56:04;;;;;;;;;;;;;;;16.69;59.77;100876.59;1447078;90;20286;-82
2022/08/10 00:58:30;;;;;;;;;;;;;;;16.64;60.04;100874.44;1458924;89;20257;-82
2022/08/10 01:00:56;;;;;;;;;;;;;;;16.62;60.14;100876.95;1447852;89;20323;-82
2022/08/10 01:03:21;;;;;;;;;;;;;;;16.60;60.22;100865.12;1451845;89;21471;-82
2022/08/10 01:06:06;;;;;;;;;;;;;;;16.60;60.12;100866.94;1458773;90;20219;-82
2022/08/10 01:08:57;;;;;;;;;;;;;;;16.56;60.68;100865.64;1455932;90;20242;-82
2022/08/10 01:11:33;;;;;;;;;;;;;;;16.54;60.61;100861.78;1401457;92;20451;-82
2022/08/10 01:14:02;;;;;;;;;;;;;;;16.55;60.55;100867.98;1400592;93;20297;-82
2022/08/10 01:16:37;;;;;;;;;;;;;;;16.50;60.88;100860.48;1423993;90;20840;-82
2022/08/10 01:19:13;;;;;;;;;;;;;;;16.48;61.29;100866.50;1450116;90;20412;-82
2022/08/10 01:21:42;;;;;;;;;;;;;;;16.46;60.99;100860.02;1452309;90;20843;-82
2022/08/10 01:24:21;;;;;;;;;;;;;;;16.44;60.94;100865.20;1402108;90;20293;-82
2022/08/10 01:27:06;;;;;;;;;;;;;;;16.43;61.29;100864.89;1452612;90;20324;-82
2022/08/10 01:29:58;;;;;;;;;;;;;;;16.38;61.59;100868.58;1449484;89;20220;-82
2022/08/10 01:32:43;;;;;;;;;;;;;;;16.36;61.51;100869.24;1454878;90;20286;-81
2022/08/10 01:35:13;;;;;;;;;;;;;;;16.31;61.73;100872.94;1450597;90;20383;-82
2022/08/10 01:37:42;;;;;;;;;;;;;;;16.28;62.21;100873.28;1455438;89;20280;-82
2022/08/10 01:40:12;;;;;;;;;;;;;;;16.21;62.26;100868.64;1465851;90;20726;-82
2022/08/10 01:42:38;;;;;;;;;;;;;;;16.21;62.38;100873.16;1451530;89;20427;-82
2022/08/10 01:45:06;;;;;;;;;;;;;;;16.20;62.16;100882.19;1455302;90;20308;-82
2022/08/10 01:50:29;;;;;;;;;;;;;;;16.11;62.59;100873.38;1454822;90;20278;-82
2022/08/10 01:52:57;;;;;;;;;;;;;;;16.07;62.96;100866.70;1448270;89;20362;-81
2022/08/10 01:55:25;;;;;;;;;;;;;;;16.04;62.99;100871.05;1446874;89;20307;-82
2022/08/10 01:57:52;;;;;;;;;;;;;;;16.02;63.04;100867.71;1453426;89;20226;-82
2022/08/10 02:00:18;;;;;;;;;;;;;;;15.99;63.48;100872.06;1447983;90;20835;-81
2022/08/10 02:02:46;;;;;;;;;;;;;;;15.96;63.65;100865.73;1463123;90;20345;-82
2022/08/10 02:05:14;;;;;;;;;;;;;;;15.94;63.83;100863.73;1452538;89;20285;-82
2022/08/10 02:07:41;;;;;;;;;;;;;;;15.94;63.53;100865.92;1452676;90;20838;-81
2022/08/10 02:10:10;;;;;;;;;;;;;;;15.93;63.57;100869.58;1453609;90;20227;-82
2022/08/10 02:12:38;;;;;;;;;;;;;;;15.92;63.81;100865.77;1438605;90;20434;-81
2022/08/10 02:15:10;;;;;;;;;;;;;;;15.92;63.95;100866.59;1445772;90;20265;-82
2022/08/10 02:17:38;;;;;;;;;;;;;;;15.94;63.58;100869.93;1439020;90;20293;-82
2022/08/10 02:20:08;;;;;;;;;;;;;;;15.98;63.78;100865.90;1437933;90;20837;-82
2022/08/10 02:22:36;;;;;;;;;;;;;;;15.96;63.80;100865.73;1442884;90;20256;-82
2022/08/10 02:25:03;;;;;;;;;;;;;;;15.93;64.06;100862.08;1449224;90;20301;-82
2022/08/10 02:27:30;;;;;;;;;;;;;;;15.93;63.80;100866.08;1450214;90;20302;-82
2022/08/10 02:29:57;;;;;;;;;;;;;;;15.90;64.10;100865.09;1439838;90;20235;-79
2022/08/10 02:32:25;;;;;;;;;;;;;;;15.88;64.42;100869.76;1441514;90;20386;-79
2022/08/10 02:34:52;;;;;;;;;;;;;;;15.85;64.21;100867.44;1445971;90;20294;-80
2022/08/10 02:37:21;;;;;;;;;;;;;;;15.84;64.33;100863.11;1448012;90;20778;-79
2022/08/10 02:39:46;;;;;;;;;;;;;;;15.82;64.31;100863.27;1449918;89;20287;-79
2022/08/10 02:42:24;;;;;;;;;;;;;;;15.81;64.44;100857.61;1449734;90;20286;-79
2022/08/10 02:45:18;;;;;;;;;;;;;;;15.78;64.37;100860.12;1444945;90;20264;-79
2022/08/10 02:47:53;;;;;;;;;;;;;;;15.76;64.46;100856.78;1438399;90;20317;-79
2022/08/10 02:50:29;;;;;;;;;;;;;;;15.75;64.73;100855.13;1441436;90;20294;-79
2022/08/10 02:53:07;;;;;;;;;;;;;;;15.77;64.67;100853.63;1439927;90;20390;-79
2022/08/10 02:55:37;;;;;;;;;;;;;;;15.79;64.55;100856.47;1449358;90;20279;-80
2022/08/10 02:58:09;;;;;;;;;;;;;;;15.82;64.32;100858.44;1437335;90;20323;-80
2022/08/10 03:00:38;;;;;;;;;;;;;;;15.79;64.85;100861.80;1447115;90;20512;-80
2022/08/10 03:03:05;;;;;;;;;;;;;;;15.81;64.42;100856.78;1444226;90;20704;-80
2022/08/10 03:05:31;;;;;;;;;;;;;;;15.80;64.50;100853.28;1442331;90;20257;-80
2022/08/10 03:08:03;;;;;;;;;;;;;;;15.78;64.46;100852.11;1453689;89;20399;-80
2022/08/10 03:10:31;;;;;;;;;;;;;;;15.79;64.51;100855.61;1447735;89;20338;-80
2022/08/10 03:13:04;;;;;;;;;;;;;;;15.78;64.77;100859.29;1448630;90;20374;-80
2022/08/10 03:15:32;;;;;;;;;;;;;;;15.75;64.60;100857.79;1451283;90;20367;-80
2022/08/10 03:17:59;;;;;;;;;;;;;;;15.75;64.53;100860.45;1455171;89;20270;-80
2022/08/10 03:20:34;;;;;;;;;;;;;;;15.75;64.93;100859.63;1450474;90;20946;-80
2022/08/10 03:23:04;;;;;;;;;;;;;;;15.73;65.01;100857.63;1456129;89;20293;-80
2022/08/10 03:25:31;;;;;;;;;;;;;;;15.75;64.65;100856.97;1444607;89;20257;-80
2022/08/10 03:27:58;;;;;;;;;;;;;;;15.77;64.49;100862.47;1446771;89;20820;-80
2022/08/10 03:30:25;;;;;;;;;;;;;;;15.78;64.85;100867.30;1457406;89;20353;-80
2022/08/10 03:32:52;;;;;;;;;;;;;;;15.78;64.87;100857.95;1447167;89;20249;-80
2022/08/10 03:35:18;;;;;;;;;;;;;;;15.79;64.87;100866.28;1461767;89;20359;-80
2022/08/10 03:37:44;;;;;;;;;;;;;;;15.81;64.88;100863.45;1454736;90;20272;-80
2022/08/10 03:40:11;;;;;;;;;;;;;;;15.81;64.83;100870.13;1451826;90;20271;-80
2022/08/10 03:42:38;;;;;;;;;;;;;;;15.81;65.09;100874.13;1454614;89;20339;-80
2022/08/10 03:45:06;;;;;;;;;;;;;;;15.74;65.29;100881.48;1450678;90;20368;-80
2022/08/10 03:47:35;;;;;;;;;;;;;;;15.76;65.13;100872.78;1461760;90;20292;-80
2022/08/10 03:50:02;;;;;;;;;;;;;;;15.76;65.42;100870.63;1439121;89;20835;-80
2022/08/10 03:52:28;;;;;;;;;;;;;;;15.78;65.26;100875.30;1454119;89;20331;-80
2022/08/10 03:54:54;;;;;;;;;;;;;;;15.78;65.20;100881.47;1454489;89;20278;-80
2022/08/10 03:57:21;;;;;;;;;;;;;;;15.76;65.41;100882.13;1455093;90;20419;-80
2022/08/10 03:59:47;;;;;;;;;;;;;;;15.77;65.51;100889.66;1452440;89;20234;-80
2022/08/10 04:02:13;;;;;;;;;;;;;;;15.77;65.48;100879.81;1439689;90;20815;-80
2022/08/10 04:04:39;;;;;;;;;;;;;;;15.78;65.27;100892.14;1458481;90;20293;-80
2022/08/10 04:07:05;;;;;;;;;;;;;;;15.84;65.42;100892.47;1448411;90;20360;-80
2022/08/10 04:09:34;;;;;;;;;;;;;;;15.90;65.16;100889.11;1451821;90;20242;-81
2022/08/10 04:12:01;;;;;;;;;;;;;;;15.89;65.24;100891.46;1445651;89;20381;-80
2022/08/10 04:14:27;;;;;;;;;;;;;;;15.95;65.01;100891.60;1452699;90;20352;-80
2022/08/10 04:16:53;;;;;;;;;;;;;;;16.00;65.12;100897.77;1442196;89;20331;-80
2022/08/10 04:19:20;;;;;;;;;;;;;;;16.04;64.84;100895.08;1451979;90;20829;-80
2022/08/10 04:21:53;;;;;;;;;;;;;;;16.06;64.91;100893.08;1445230;89;20851;-80
2022/08/10 04:24:21;;;;;;;;;;;;;;;16.11;64.61;100898.74;1448115;90;20425;-80
2022/08/10 04:26:47;;;;;;;;;;;;;;;16.17;64.76;100897.19;1445688;90;20270;-80
2022/08/10 04:29:13;;;;;;;;;;;;;;;16.26;64.46;100893.50;1451103;90;21213;-80
2022/08/10 04:31:42;;;;;;;;;;;;;;;16.34;64.00;100896.62;1457702;90;20337;-80
2022/08/10 04:34:08;;;;;;;;;;;;;;;16.39;64.20;100894.27;1448935;89;20285;-80
2022/08/10 04:36:34;;;;;;;;;;;;;;;16.48;63.91;100894.55;1455046;90;21474;-80
2022/08/10 04:39:00;;;;;;;;;;;;;;;16.55;63.48;100902.73;1437037;89;20338;-80
2022/08/10 04:41:27;;;;;;;;;;;;;;;16.60;62.85;100903.01;1455425;90;20241;-80
2022/08/10 04:43:53;;;;;;;;;;;;;;;16.65;62.96;100898.80;1457195;90;20278;-80
2022/08/10 04:46:18;;;;;;;;;;;;;;;16.72;62.56;100902.13;1454993;90;20249;-80
2022/08/10 04:48:44;;;;;;;;;;;;;;;16.78;62.70;100905.47;1452343;90;20256;-80
2022/08/10 04:51:13;;;;;;;;;;;;;;;16.83;62.44;100905.27;1455770;90;20873;-80
2022/08/10 04:53:39;;;;;;;;;;;;;;;16.94;62.24;100906.67;1456533;89;20733;-80
2022/08/10 04:56:07;;;;;;;;;;;;;;;17.02;62.16;100902.61;1457106;89;20398;-80
2022/08/10 04:58:36;;;;;;;;;;;;;;;17.07;61.86;100905.59;1450507;90;20813;-81
2022/08/10 05:01:03;;;;;;;;;;;;;;;17.12;61.30;100900.55;1439811;90;20285;-80
2022/08/10 05:03:28;;;;;;;;;;;;;;;17.20;61.14;100906.31;1450598;89;20346;-81
2022/08/10 05:05:54;;;;;;;;;;;;;;;17.27;60.75;100905.94;1457092;89;20286;-80
2022/08/10 05:08:20;;;;;;;;;;;;;;;17.37;60.97;100901.67;1453669;90;20375;-80
2022/08/10 05:10:46;;;;;;;;;;;;;;;17.46;60.73;100901.09;1449102;89;20285;-81
2022/08/10 05:13:12;;;;;;;;;;;;;;;17.55;60.29;100896.84;1440830;89;20872;-81
2022/08/10 05:15:40;;;;;;;;;;;;;;;17.62;60.16;100888.91;1447478;89;20263;-80
2022/08/10 05:18:06;;;;;;;;;;;;;;;17.73;59.95;100889.80;1454228;89;20256;-81
2022/08/10 05:20:32;;;;;;;;;;;;;;;17.79;59.46;100885.08;1455068;89;20470;-80
2022/08/10 05:22:58;;;;;;;;;;;;;;;17.89;59.25;100887.47;1446167;90;20792;-81
2022/08/10 05:25:24;;;;;;;;;;;;;;;17.98;59.02;100886.39;1450426;89;21573;-80
2022/08/10 05:27:50;;;;;;;;;;;;;;;18.07;59.12;100886.27;1444034;90;20302;-85
2022/08/10 05:30:18;;;;;;;;;;;;;;;18.16;58.62;100895.38;1452458;90;20345;-85
2022/08/10 05:32:44;;;;;;;;;;;;;;;18.25;58.21;100896.11;1458528;89;20278;-86
2022/08/10 05:35:10;;;;;;;;;;;;;;;18.36;58.54;100896.97;1449953;90;20345;-85
2022/08/10 05:37:37;;;;;;;;;;;;;;;18.45;57.56;100893.16;1458537;89;20272;-86
2022/08/10 05:40:05;;;;;;;;;;;;;;;18.57;57.70;100893.50;1452374;90;20307;-86
2022/08/10 05:42:32;;;;;;;;;;;;;;;18.69;57.40;100891.98;1452852;89;20306;-85
2022/08/10 05:44:58;;;;;;;;;;;;;;;18.78;56.75;100899.42;1452980;90;20212;-85
2022/08/10 05:47:24;;;;;;;;;;;;;;;18.89;56.50;100892.23;1450914;89;20256;-84
2022/08/10 05:49:50;;;;;;;;;;;;;;;18.99;56.03;100904.48;1450912;89;20412;-86
2022/08/10 05:52:16;;;;;;;;;;;;;;;19.03;55.46;100902.58;1448955;90;20220;-85
2022/08/10 05:54:43;;;;;;;;;;;;;;;19.14;55.45;100900.73;1455609;89;20234;-85
2022/08/10 05:57:10;;;;;;;;;;;;;;;19.27;55.39;100908.05;1442044;90;20278;-85
2022/08/10 05:59:38;;;;;;;;;;;;;;;19.42;55.90;100903.12;1454719;90;20382;-86
2022/08/10 06:04:54;;;;;;;;;;;;;;;19.54;54.47;100898.39;1453522;88;20323;-86
2022/08/10 06:07:20;;;;;;;;;;;;;;;19.67;54.52;100903.04;1420370;90;20401;-86
2022/08/10 06:09:47;;;;;;;;;;;;;;;19.75;53.92;100904.23;1451263;90;20242;-86
2022/08/10 06:12:13;;;;;;;;;;;;;;;19.76;53.60;100896.48;1455069;90;20690;-86
2022/08/10 06:15:00;;;;;;;;;;;;;;;19.90;53.72;100893.90;1452266;90;20396;-86
2022/08/10 06:17:28;;;;;;;;;;;;;;;19.96;53.59;100899.30;1441029;89;20264;-86
2022/08/10 06:19:58;;;;;;;;;;;;;;;20.03;53.27;100896.16;1454202;89;20205;-86
2022/08/10 06:22:31;;;;;;;;;;;;;;;20.12;53.11;100890.10;1440795;89;20397;-86
2022/08/10 06:24:57;;;;;;;;;;;;;;;20.19;52.46;100890.95;1455751;90;20331;-87
2022/08/10 06:27:23;;;;;;;;;;;;;;;20.26;51.65;100896.38;1438153;90;20235;-88
2022/08/10 06:29:50;;;;;;;;;;;;;;;20.39;51.74;100896.41;1447898;90;20256;-87
2022/08/10 06:32:17;;;;;;;;;;;;;;;20.59;52.07;100901.89;1446260;90;20293;-87
2022/08/10 06:34:46;;;;;;;;;;;;;;;20.66;51.02;100902.77;1443422;89;20235;-88
2022/08/10 06:37:14;;;;;;;;;;;;;;;20.81;51.35;100904.45;1450083;89;20323;-87
2022/08/10 06:39:40;;;;;;;;;;;;;;;20.83;50.36;100903.71;1444249;89;20293;-87
2022/08/10 06:42:14;;;;;;;;;;;;;;;21.00;50.81;100905.52;1447191;90;20293;-88
2022/08/10 06:44:52;;;;;;;;;;;;;;;21.13;50.16;100904.20;1455613;89;20888;-88
2022/08/10 06:47:22;;;;;;;;;;;;;;;21.23;49.79;100907.81;1447410;89;20378;-88
2022/08/10 06:49:50;;;;;;;;;;;;;;;21.23;49.27;100906.47;1442141;90;20332;-88
2022/08/10 06:52:16;;;;;;;;;;;;;;;21.27;49.34;100895.63;1437616;89;20279;-88
2022/08/10 06:54:43;;;;;;;;;;;;;;;21.32;49.04;100905.23;1444999;89;20785;-88
2022/08/10 06:57:10;;;;;;;;;;;;;;;21.46;49.17;100904.22;1451461;89;20294;-88
2022/08/10 06:59:42;;;;;;;;;;;;;;;21.55;48.66;100904.84;1441466;89;20294;-87
2022/08/10 07:02:17;;;;;;;;;;;;;;;21.66;47.96;100902.04;1455081;89;20278;-88
2022/08/10 07:04:49;;;;;;;;;;;;;;;21.82;47.94;100907.00;1462192;88;20377;-87
2022/08/10 07:07:18;;;;;;;;;;;;;;;21.94;47.83;100904.48;1470231;89;20423;-87
2022/08/10 07:09:44;;;;;;;;;;;;;;;22.00;47.30;100899.07;1461778;89;20255;-87
2022/08/10 07:12:10;;;;;;;;;;;;;;;22.07;47.11;100897.20;1475979;89;20306;-87
2022/08/10 07:14:38;;;;;;;;;;;;;;;22.11;46.94;100894.90;1471028;89;20291;-87
2022/08/10 07:17:07;;;;;;;;;;;;;;;22.32;47.68;100901.08;1463664;88;20232;-88
2022/08/10 07:19:32;;;;;;;;;;;;;;;22.48;47.33;100900.08;1475474;89;20240;-87
2022/08/10 07:21:59;;;;;;;;;;;;;;;22.47;46.16;100899.78;1467054;89;20276;-86
2022/08/10 07:24:26;;;;;;;;;;;;;;;22.59;46.40;100905.33;1469734;89;20336;-87
2022/08/10 07:26:54;;;;;;;;;;;;;;;22.70;46.12;100903.80;1464851;89;21090;-87
2022/08/10 07:29:26;;;;;;;;;;;;;;;22.76;45.66;100896.21;1470041;89;20403;-88
2022/08/10 07:31:50;;;;;;;;;;;;;;;22.86;45.59;100900.59;1463455;89;20268;-87
2022/08/10 07:34:19;;;;;;;;;;;;;;;23.00;45.86;100900.55;1448470;89;20878;-86
2022/08/10 07:36:45;;;;;;;;;;;;;;;22.93;44.82;100898.70;1482415;89;20256;-87
2022/08/10 07:39:12;;;;;;;;;;;;;;;23.06;45.33;100905.89;1462920;89;20398;-87
2022/08/10 07:41:40;;;;;;;;;;;;;;;23.20;45.25;100899.35;1469005;89;20373;-88
2022/08/10 07:44:08;;;;;;;;;;;;;;;23.20;45.06;100897.19;1469205;89;20212;-87
2022/08/10 07:46:35;;;;;;;;;;;;;;;23.32;45.02;100897.30;1463364;88;20722;-88
2022/08/10 07:49:07;;;;;;;;;;;;;;;23.47;45.02;100901.01;1461841;89;20247;-87
2022/08/10 07:51:33;;;;;;;;;;;;;;;23.40;44.10;100899.20;1473200;89;20425;-88
2022/08/10 07:54:04;;;;;;;;;;;;;;;23.54;44.62;100904.49;1469330;89;20893;-87
2022/08/10 07:56:30;;;;;;;;;;;;;;;23.54;43.77;100897.73;1463632;89;20279;-86
2022/08/10 07:59:03;;;;;;;;;;;;;;;23.57;44.66;100893.23;1471444;89;20225;-86
2022/08/10 08:01:32;;;;;;;;;;;;;;;23.62;43.71;100896.08;1457555;89;20775;-87
2022/08/10 08:04:00;;;;;;;;;;;;;;;23.66;44.36;100891.91;1478382;88;20299;-87
2022/08/10 08:06:28;;;;;;;;;;;;;;;23.79;44.33;100891.78;1466474;89;20232;-87
2022/08/10 08:08:54;;;;;;;;;;;;;;;23.99;43.76;100892.10;1469326;89;20398;-88
2022/08/10 08:11:20;;;;;;;;;;;;;;;24.05;43.15;100892.55;1469787;89;20336;-88
2022/08/10 08:13:47;;;;;;;;;;;;;;;24.28;43.46;100891.86;1472323;89;20291;-88
2022/08/10 08:16:13;;;;;;;;;;;;;;;24.28;42.98;100890.01;1479692;89;20283;-87
2022/08/10 08:18:39;;;;;;;;;;;;;;;24.47;42.53;100883.23;1469949;89;20833;-87
2022/08/10 08:21:06;;;;;;;;;;;;;;;24.55;41.41;100885.63;1464889;89;20315;-88
2022/08/10 08:23:33;;;;;;;;;;;;;;;24.60;41.69;100888.48;1469609;89;20790;-88
2022/08/10 08:25:59;;;;;;;;;;;;;;;24.64;41.47;100884.25;1462826;88;20269;-87
2022/08/10 08:28:27;;;;;;;;;;;;;;;24.87;41.65;100879.98;1476060;89;20313;-87
2022/08/10 08:30:53;;;;;;;;;;;;;;;24.71;40.80;100889.56;1452785;89;20782;-87
2022/08/10 08:33:20;;;;;;;;;;;;;;;24.85;40.59;100876.12;1443843;89;20462;-88
2022/08/10 08:35:47;;;;;;;;;;;;;;;25.09;40.45;100881.59;1469501;89;20275;-88
2022/08/10 08:38:13;;;;;;;;;;;;;;;25.26;39.87;100873.65;1473661;89;20365;-87
2022/08/10 08:40:42;;;;;;;;;;;;;;;25.29;38.76;100873.18;1472529;89;20232;-87
2022/08/10 08:43:24;;;;;;;;;;;;;;;25.35;38.34;100877.69;1472782;89;20247;-87
2022/08/10 08:46:20;;;;;;;;;;;;;;;25.46;38.41;100874.13;1476404;89;20825;-88
2022/08/10 08:49:04;;;;;;;;;;;;;;;25.49;37.77;100875.05;1464793;89;20284;-87
2022/08/10 08:51:50;;;;;;;;;;;;;;;25.59;37.92;100868.48;1464693;89;20276;-88
2022/08/10 08:54:35;;;;;;;;;;;;;;;25.65;38.59;100856.69;1468760;89;20240;-88
2022/08/10 08:57:23;;;;;;;;;;;;;;;25.66;37.76;100858.87;1465024;89;20292;-88
2022/08/10 09:00:05;;;;;;;;;;;;;;;25.74;37.45;100864.47;1465736;89;20745;-88
2022/08/10 09:02:43;;;;;;;;;;;;;;;25.86;37.47;100867.47;1471474;89;20254;-88
2022/08/10 09:05:37;;;;;;;;;;;;;;;25.78;37.24;100862.92;1467005;88;20455;-87
2022/08/10 09:08:30;;;;;;;;;;;;;;;25.79;37.54;100863.23;1471419;89;20314;-89
2022/08/10 09:11:09;;;;;;;;;;;;;;;25.88;36.38;100859.12;1464922;89;20329;-88
2022/08/10 09:13:45;;;;;;;;;;;;;;;26.03;36.84;100860.78;1424991;89;20254;-87
2022/08/10 09:16:24;;;;;;;;;;;;;;;26.37;38.62;100853.33;1478043;89;20254;-88
2022/08/10 09:18:56;;;;;;;;;;;;;;;26.66;36.69;100855.52;1473511;89;20261;-88
2022/08/10 09:21:43;;;;;;;;;;;;;;;26.75;35.74;100855.41;1461576;89;20240;-88
2022/08/10 09:24:15;;;;;;;;;;;;;;;26.87;35.20;100854.80;1463864;89;20269;-88
2022/08/10 09:26:47;;;;;;;;;;;;;;;26.87;36.10;100858.87;1469211;89;20299;-88
2022/08/10 09:29:25;;;;;;;;;;;;;;;26.86;34.86;100861.30;1477235;89;20336;-88
2022/08/10 09:31:55;;;;;;;;;;;;;;;26.67;35.08;100847.66;1473006;89;20247;-89
2022/08/10 09:34:30;;;;;;;;;;;;;;;26.66;36.00;100855.52;1460534;89;20418;-88
2022/08/10 09:37:18;;;;;;;;;;;;;;;26.77;35.30;100852.73;1475418;89;20246;-88
2022/08/10 09:40:06;;;;;;;;;;;;;;;26.77;35.65;100847.84;1454857;89;20386;-88
2022/08/10 09:42:41;;;;;;;;;;;;;;;26.37;35.27;100847.36;1470391;89;20364;-88
2022/08/10 09:45:17;;;;;;;;;;;;;;;26.23;35.72;100855.48;1480017;89;20291;-88
2022/08/10 09:48:11;;;;;;;;;;;;;;;25.90;35.58;100850.22;1463648;89;20283;-87
2022/08/10 09:51:07;;;;;;;;;;;;;;;26.08;35.23;100851.94;1462782;89;20269;-89
2022/08/10 09:53:42;;;;;;;;;;;;;;;26.49;35.10;100838.62;1468516;89;20716;-89
2022/08/10 09:56:30;;;;;;;;;;;;;;;26.90;35.38;100838.04;1470636;87;20276;-88
2022/08/10 09:59:12;;;;;;;;;;;;;;;27.24;33.31;100854.34;1467203;89;20343;-88
2022/08/10 10:01:44;;;;;;;;;;;;;;;27.62;34.01;100854.09;1456529;88;20291;-87
2022/08/10 10:04:29;;;;;;;;;;;;;;;28.04;33.04;100838.62;1475702;88;20358;-87
2022/08/10 10:07:00;;;;;;;;;;;;;;;28.37;31.92;100835.45;1463319;89;20334;-88
2022/08/10 10:09:59;;;;;;;;;;;;;;;28.58;32.76;100842.80;1461349;89;20270;-88
2022/08/10 10:12:34;;;;;;;;;;;;;;;28.40;32.17;100837.14;1455100;89;20330;-87
2022/08/10 10:15:22;;;;;;;;;;;;;;;28.26;31.72;100844.06;1455464;89;20352;-87
2022/08/10 10:18:04;;;;;;;;;;;;;;;28.43;31.85;100827.67;1458624;89;20418;-88
2022/08/10 10:21:06;;;;;;;;;;;;;;;27.93;32.25;100828.70;1461784;89;20403;-87
2022/08/10 10:23:36;;;;;;;;;;;;;;;27.96;32.75;100841.79;1457682;89;20345;-88
2022/08/10 10:26:33;;;;;;;;;;;;;;;28.24;32.29;100836.14;1456841;89;20331;-88
2022/08/10 10:29:14;;;;;;;;;;;;;;;28.52;31.87;100830.21;1462805;89;20400;-88
2022/08/10 10:31:43;;;;;;;;;;;;;;;28.51;31.15;100827.19;1449452;89;20764;-88
2022/08/10 10:34:28;;;;;;;;;;;;;;;28.18;31.19;100837.16;1451345;89;20349;-87
2022/08/10 10:36:55;;;;;;;;;;;;;;;27.51;31.95;100836.02;1451573;89;20234;-87
2022/08/10 10:39:23;;;;;;;;;;;;;;;27.17;32.74;100831.97;1457675;89;20219;-88
2022/08/10 10:42:19;;;;;;;;;;;;;;;27.38;32.00;100832.55;1455333;89;20419;-87
2022/08/10 10:44:51;;;;;;;;;;;;;;;27.71;32.23;100826.77;1459652;89;20241;-87
2022/08/10 10:47:54;;;;;;;;;;;;;;;27.52;32.23;100833.57;1455647;89;20330;-88
2022/08/10 10:50:30;;;;;;;;;;;;;;;27.21;32.48;100827.67;1453700;89;20255;-88
2022/08/10 10:53:27;;;;;;;;;;;;;;;27.13;33.00;100830.77;1457299;89;20300;-88
2022/08/10 10:55:59;;;;;;;;;;;;;;;27.38;32.25;100829.02;1456631;89;20827;-87
2022/08/10 10:58:35;;;;;;;;;;;;;;;27.75;31.93;100827.09;1462928;89;20829;-88
2022/08/10 11:01:20;;;;;;;;;;;;;;;27.90;32.33;100818.59;1454279;89;20390;-88
2022/08/10 11:04:02;;;;;;;;;;;;;;;27.63;32.20;100817.69;1454507;89;20272;-87
2022/08/10 11:06:38;;;;;;;;;;;;;;;27.74;31.73;100820.83;1446741;89;20839;-87
2022/08/10 11:09:16;;;;;;;;;;;;;;;27.98;30.51;100813.27;1444258;90;20757;-86
2022/08/10 11:11:42;;;;;;;;;;;;;;;28.20;30.77;100809.71;1434429;91;20924;-88
2022/08/10 11:14:15;;;;;;;;;;;;;;;28.43;30.28;100808.62;1425962;92;20278;-87
2022/08/10 11:16:52;;;;;;;;;;;;;;;28.87;30.98;100809.83;1425005;92;20412;-87
2022/08/10 11:19:57;;;;;;;;;;;;;;;29.15;29.62;100812.25;1423011;92;20389;-87
2022/08/10 11:22:33;;;;;;;;;;;;;;;28.87;29.04;100813.91;1422718;92;20284;-88
2022/08/10 11:25:24;;;;;;;;;;;;;;;28.64;28.80;100812.35;1416371;91;20249;-88
2022/08/10 11:28:12;;;;;;;;;;;;;;;28.44;29.88;100819.23;1418246;91;20858;-88
2022/08/10 11:31:01;;;;;;;;;;;;;;;28.60;30.63;100816.14;1423510;92;20799;-87
2022/08/10 11:33:47;;;;;;;;;;;;;;;28.75;30.11;100814.09;1430331;92;20315;-87
2022/08/10 11:36:19;;;;;;;;;;;;;;;28.62;30.47;100811.23;1431516;91;20291;-87
2022/08/10 11:38:58;;;;;;;;;;;;;;;29.03;30.15;100809.41;1432198;91;20889;-88
2022/08/10 11:41:30;;;;;;;;;;;;;;;29.28;29.61;100809.59;1426163;92;20255;-88
2022/08/10 11:44:00;;;;;;;;;;;;;;;29.39;29.06;100809.13;1428642;92;20337;-88
2022/08/10 11:46:46;;;;;;;;;;;;;;;29.37;28.76;100801.74;1421256;92;20864;-88
2022/08/10 11:49:23;;;;;;;;;;;;;;;29.62;30.01;100797.82;1428504;92;20710;-88
2022/08/10 11:51:53;;;;;;;;;;;;;;;29.85;28.71;100799.28;1425532;92;20922;-88
2022/08/10 11:54:32;;;;;;;;;;;;;;;30.02;29.04;100792.25;1426841;91;20286;-89
2022/08/10 11:56:59;;;;;;;;;;;;;;;29.73;28.07;100789.70;1420038;92;20361;-87
2022/08/10 12:02:14;;;;;;;;;;;;;;;28.76;28.59;100786.58;1417879;92;20392;-88
2022/08/10 12:04:43;;;;;;;;;;;;;;;28.52;29.31;100802.44;1426064;91;20434;-88
2022/08/10 12:07:10;;;;;;;;;;;;;;;28.39;29.54;100801.45;1429743;91;20458;-88
2022/08/10 12:09:37;;;;;;;;;;;;;;;28.00;29.65;100800.78;1425751;91;20321;-88
2022/08/10 12:12:04;;;;;;;;;;;;;;;27.99;31.26;100795.85;1438870;91;20900;-88
2022/08/10 12:14:37;;;;;;;;;;;;;;;28.35;31.22;100782.64;1439217;91;20403;-87
2022/08/10 12:17:06;;;;;;;;;;;;;;;28.65;29.59;100788.93;1438187;90;20276;-88
2022/08/10 12:19:55;;;;;;;;;;;;;;;28.89;30.30;100787.23;1430094;90;20255;-87
2022/08/10 12:22:25;;;;;;;;;;;;;;;28.98;28.71;100789.75;1436469;91;20284;-88
2022/08/10 12:24:53;;;;;;;;;;;;;;;28.86;29.60;100779.56;1435988;91;20784;-87
2022/08/10 12:27:32;;;;;;;;;;;;;;;28.79;29.60;100784.69;1440130;91;20284;-88
2022/08/10 12:30:05;;;;;;;;;;;;;;;28.96;29.03;100790.55;1435138;91;20262;-87
2022/08/10 12:32:46;;;;;;;;;;;;;;;29.26;28.24;100781.77;1442127;91;20306;-88
2022/08/10 12:35:19;;;;;;;;;;;;;;;29.54;28.30;100774.30;1431382;91;20314;-89
2022/08/10 12:37:51;;;;;;;;;;;;;;;29.45;27.35;100778.89;1439976;90;20751;-88
2022/08/10 12:40:22;;;;;;;;;;;;;;;29.73;27.47;100778.79;1447593;91;20365;-88
2022/08/10 12:43:10;;;;;;;;;;;;;;;29.98;27.53;100773.42;1436670;91;20336;-88
2022/08/10 12:45:39;;;;;;;;;;;;;;;30.26;27.08;100765.86;1433500;90;20233;-88
2022/08/10 12:48:24;;;;;;;;;;;;;;;30.29;26.20;100763.95;1436612;90;20396;-88
2022/08/10 12:50:54;;;;;;;;;;;;;;;30.26;26.18;100767.22;1434360;90;20420;-88
2022/08/10 12:53:45;;;;;;;;;;;;;;;30.53;25.88;100763.70;1432664;91;20909;-87
2022/08/10 12:56:12;;;;;;;;;;;;;;;30.44;26.01;100769.44;1436562;91;20306;-88
2022/08/10 12:58:40;;;;;;;;;;;;;;;30.73;26.06;100767.54;1418325;91;20291;-88
2022/08/10 13:01:07;;;;;;;;;;;;;;;30.99;25.28;100756.06;1436751;91;20284;-88
2022/08/10 13:03:35;;;;;;;;;;;;;;;31.29;24.99;100755.71;1429256;91;20758;-88
2022/08/10 13:06:05;;;;;;;;;;;;;;;31.51;25.23;100752.67;1428033;90;20783;-88
2022/08/10 13:11:20;;;;;;;;;;;;;;;31.41;24.46;100761.16;1417282;92;20761;-88